sensor_id;sensor_type;location;lat;lon;timestamp;P1;durP1;ratioP1;P2;durP2;ratioP2
51810;SDS011;52468;40.116;18.296;2024-01-10T06:43:36;19.27;;;8.57;;
51810;SDS011;52468;40.116;18.296;2024-01-10T06:46:05;18.20;;;9.93;;
51810;SDS011;52468;40.116;18.296;2024-01-10T06:48:32;18.07;;;9.33;;
51810;SDS011;52468;40.116;18.296;2024-01-10T06:51:00;18.17;;;9.60;;
51810;SDS011;52468;40.116;18.296;2024-01-10T06:53:28;18.37;;;9.40;;
51810;SDS011;52468;40.116;18.296;2024-01-10T06:55:56;21.77;;;9.60;;
51810;SDS011;52468;40.116;18.296;2024-01-10T06:58:24;19.73;;;8.90;;
51810;SDS011;52468;40.116;18.296;2024-01-10T07:00:52;17.60;;;9.40;;
51810;SDS011;52468;40.116;18.296;2024-01-10T07:03:20;17.13;;;10.07;;
51810;SDS011;52468;40.116;18.296;2024-01-10T07:05:48;23.57;;;11.60;;
51810;SDS011;52468;40.116;18.296;2024-01-10T07:08:15;20.00;;;11.40;;
51810;SDS011;52468;40.116;18.296;2024-01-10T07:10:43;23.87;;;12.10;;
51810;SDS011;52468;40.116;18.296;2024-01-10T07:13:11;22.73;;;10.43;;
51810;SDS011;52468;40.116;18.296;2024-01-10T07:15:39;20.83;;;12.63;;
51810;SDS011;52468;40.116;18.296;2024-01-10T07:18:07;26.90;;;12.20;;
51810;SDS011;52468;40.116;18.296;2024-01-10T07:20:35;22.60;;;11.13;;
51810;SDS011;52468;40.116;18.296;2024-01-10T07:23:04;21.17;;;11.43;;
51810;SDS011;52468;40.116;18.296;2024-01-10T07:25:32;27.37;;;12.87;;
51810;SDS011;52468;40.116;18.296;2024-01-10T07:28:01;24.27;;;13.33;;
51810;SDS011;52468;40.116;18.296;2024-01-10T07:30:28;25.97;;;12.00;;
51810;SDS011;52468;40.116;18.296;2024-01-10T07:33:00;25.33;;;13.17;;
51810;SDS011;52468;40.116;18.296;2024-01-10T07:35:28;22.93;;;13.20;;
51810;SDS011;52468;40.116;18.296;2024-01-10T07:37:58;21.23;;;13.40;;
51810;SDS011;52468;40.116;18.296;2024-01-10T07:40:26;24.43;;;13.33;;
51810;SDS011;52468;40.116;18.296;2024-01-10T07:42:54;28.97;;;12.97;;
51810;SDS011;52468;40.116;18.296;2024-01-10T07:45:22;30.23;;;14.43;;
51810;SDS011;52468;40.116;18.296;2024-01-10T07:47:50;28.30;;;14.60;;
51810;SDS011;52468;40.116;18.296;2024-01-10T07:50:18;23.93;;;12.83;;
51810;SDS011;52468;40.116;18.296;2024-01-10T07:52:46;22.97;;;12.60;;
51810;SDS011;52468;40.116;18.296;2024-01-10T07:55:14;22.63;;;13.47;;
51810;SDS011;52468;40.116;18.296;2024-01-10T07:57:43;19.53;;;12.67;;
51810;SDS011;52468;40.116;18.296;2024-01-10T08:00:11;22.93;;;13.03;;
51810;SDS011;52468;40.116;18.296;2024-01-10T08:02:40;23.70;;;13.73;;
51810;SDS011;52468;40.116;18.296;2024-01-10T08:05:09;27.13;;;14.53;;
51810;SDS011;52468;40.116;18.296;2024-01-10T08:07:37;24.97;;;14.43;;
51810;SDS011;52468;40.116;18.296;2024-01-10T08:10:06;20.73;;;13.67;;
51810;SDS011;52468;40.116;18.296;2024-01-10T08:12:36;22.33;;;10.90;;
51810;SDS011;52468;40.116;18.296;2024-01-10T08:15:06;19.83;;;9.47;;
51810;SDS011;52468;40.116;18.296;2024-01-10T08:17:34;14.50;;;7.73;;
51810;SDS011;52468;40.116;18.296;2024-01-10T08:20:05;10.30;;;7.07;;
51810;SDS011;52468;40.116;18.296;2024-01-10T08:22:35;9.03;;;6.53;;
51810;SDS011;52468;40.116;18.296;2024-01-10T08:25:04;10.27;;;5.83;;
51810;SDS011;52468;40.116;18.296;2024-01-10T08:27:32;14.57;;;7.27;;
51810;SDS011;52468;40.116;18.296;2024-01-10T08:30:00;8.70;;;6.13;;
51810;SDS011;52468;40.116;18.296;2024-01-10T08:32:32;10.17;;;5.87;;
51810;SDS011;52468;40.116;18.296;2024-01-10T08:35:03;10.27;;;5.90;;
51810;SDS011;52468;40.116;18.296;2024-01-10T08:37:37;9.53;;;5.63;;
51810;SDS011;52468;40.116;18.296;2024-01-10T08:40:05;10.03;;;5.90;;
51810;SDS011;52468;40.116;18.296;2024-01-10T08:42:40;10.50;;;5.53;;
51810;SDS011;52468;40.116;18.296;2024-01-10T08:45:09;8.93;;;5.90;;
51810;SDS011;52468;40.116;18.296;2024-01-10T08:47:38;8.20;;;5.20;;
51810;SDS011;52468;40.116;18.296;2024-01-10T08:50:06;9.37;;;4.83;;
51810;SDS011;52468;40.116;18.296;2024-01-10T08:52:37;10.93;;;5.17;;
51810;SDS011;52468;40.116;18.296;2024-01-10T08:55:06;7.73;;;4.90;;
51810;SDS011;52468;40.116;18.296;2024-01-10T08:57:36;8.50;;;4.27;;
51810;SDS011;52468;40.116;18.296;2024-01-10T09:00:04;5.93;;;3.80;;
51810;SDS011;52468;40.116;18.296;2024-01-10T09:02:34;6.13;;;4.53;;
51810;SDS011;52468;40.116;18.296;2024-01-10T09:05:04;11.00;;;5.23;;
51810;SDS011;52468;40.116;18.296;2024-01-10T09:07:33;9.50;;;5.03;;
51810;SDS011;52468;40.116;18.296;2024-01-10T09:10:01;5.87;;;4.70;;
51810;SDS011;52468;40.116;18.296;2024-01-10T09:12:29;7.33;;;4.53;;
51810;SDS011;52468;40.116;18.296;2024-01-10T09:14:57;10.37;;;5.30;;
51810;SDS011;52468;40.116;18.296;2024-01-10T09:17:25;9.60;;;5.00;;
51810;SDS011;52468;40.116;18.296;2024-01-10T09:19:55;10.73;;;4.77;;
51810;SDS011;52468;40.116;18.296;2024-01-10T09:22:22;11.43;;;5.30;;
51810;SDS011;52468;40.116;18.296;2024-01-10T09:24:50;6.60;;;4.47;;
51810;SDS011;52468;40.116;18.296;2024-01-10T09:27:18;7.50;;;4.60;;
51810;SDS011;52468;40.116;18.296;2024-01-10T09:29:46;7.17;;;4.60;;
51810;SDS011;52468;40.116;18.296;2024-01-10T09:32:14;11.73;;;5.27;;
51810;SDS011;52468;40.116;18.296;2024-01-10T09:34:42;7.83;;;4.40;;
51810;SDS011;52468;40.116;18.296;2024-01-10T09:37:09;9.53;;;4.97;;
51810;SDS011;52468;40.116;18.296;2024-01-10T09:39:37;5.87;;;4.10;;
51810;SDS011;52468;40.116;18.296;2024-01-10T09:42:05;10.10;;;5.53;;
51810;SDS011;52468;40.116;18.296;2024-01-10T09:44:33;7.87;;;4.27;;
51810;SDS011;52468;40.116;18.296;2024-01-10T09:47:01;8.70;;;4.73;;
51810;SDS011;52468;40.116;18.296;2024-01-10T09:49:29;6.90;;;4.90;;
51810;SDS011;52468;40.116;18.296;2024-01-10T09:51:58;6.30;;;4.67;;
51810;SDS011;52468;40.116;18.296;2024-01-10T09:54:29;6.00;;;4.40;;
51810;SDS011;52468;40.116;18.296;2024-01-10T09:56:57;6.17;;;3.90;;
51810;SDS011;52468;40.116;18.296;2024-01-10T09:59:26;7.40;;;4.37;;
51810;SDS011;52468;40.116;18.296;2024-01-10T10:01:55;16.37;;;4.23;;
51810;SDS011;52468;40.116;18.296;2024-01-10T10:04:27;9.40;;;5.10;;
51810;SDS011;52468;40.116;18.296;2024-01-10T10:06:58;8.17;;;4.60;;
51810;SDS011;52468;40.116;18.296;2024-01-10T10:09:28;6.95;;;3.83;;
51810;SDS011;52468;40.116;18.296;2024-01-10T10:11:57;7.03;;;4.10;;
51810;SDS011;52468;40.116;18.296;2024-01-10T10:14:26;6.83;;;4.67;;
51810;SDS011;52468;40.116;18.296;2024-01-10T10:16:56;8.37;;;4.20;;
51810;SDS011;52468;40.116;18.296;2024-01-10T10:19:40;6.27;;;4.53;;
51810;SDS011;52468;40.116;18.296;2024-01-10T10:22:08;8.13;;;4.47;;
51810;SDS011;52468;40.116;18.296;2024-01-10T10:24:37;11.27;;;4.67;;
51810;SDS011;52468;40.116;18.296;2024-01-10T10:27:08;7.13;;;4.60;;
51810;SDS011;52468;40.116;18.296;2024-01-10T10:29:38;7.70;;;4.63;;
51810;SDS011;52468;40.116;18.296;2024-01-10T10:32:06;4.90;;;3.60;;
51810;SDS011;52468;40.116;18.296;2024-01-10T10:34:35;5.57;;;3.83;;
51810;SDS011;52468;40.116;18.296;2024-01-10T10:37:03;5.83;;;4.00;;
51810;SDS011;52468;40.116;18.296;2024-01-10T10:39:31;6.93;;;4.53;;
51810;SDS011;52468;40.116;18.296;2024-01-10T10:41:59;5.30;;;4.27;;
51810;SDS011;52468;40.116;18.296;2024-01-10T10:44:28;7.63;;;4.10;;
51810;SDS011;52468;40.116;18.296;2024-01-10T10:46:59;7.40;;;4.27;;
51810;SDS011;52468;40.116;18.296;2024-01-10T10:49:34;7.60;;;4.50;;
51810;SDS011;52468;40.116;18.296;2024-01-10T10:52:04;11.87;;;7.20;;
51810;SDS011;52468;40.116;18.296;2024-01-10T10:54:33;11.27;;;7.83;;
51810;SDS011;52468;40.116;18.296;2024-01-10T10:57:02;9.03;;;5.33;;
51810;SDS011;52468;40.116;18.296;2024-01-10T10:59:31;7.40;;;3.70;;
51810;SDS011;52468;40.116;18.296;2024-01-10T11:02:02;7.50;;;4.90;;
51810;SDS011;52468;40.116;18.296;2024-01-10T11:04:33;5.70;;;3.50;;
51810;SDS011;52468;40.116;18.296;2024-01-10T11:07:02;10.50;;;5.10;;
51810;SDS011;52468;40.116;18.296;2024-01-10T11:09:30;7.27;;;4.70;;
51810;SDS011;52468;40.116;18.296;2024-01-10T11:12:02;8.63;;;4.30;;
51810;SDS011;52468;40.116;18.296;2024-01-10T11:20:51;5.87;;;4.70;;
51810;SDS011;52468;40.116;18.296;2024-01-10T11:26:08;7.70;;;4.23;;
51810;SDS011;52468;40.116;18.296;2024-01-10T11:28:36;8.27;;;3.97;;
51810;SDS011;52468;40.116;18.296;2024-01-10T11:31:05;6.50;;;3.90;;
51810;SDS011;52468;40.116;18.296;2024-01-10T11:33:41;4.88;;;2.92;;
51810;SDS011;52468;40.116;18.296;2024-01-10T11:36:19;4.87;;;3.67;;
51810;SDS011;52468;40.116;18.296;2024-01-10T11:41:21;8.93;;;6.27;;
51810;SDS011;52468;40.116;18.296;2024-01-10T11:46:49;5.73;;;3.83;;
51810;SDS011;52468;40.116;18.296;2024-01-10T11:49:20;5.17;;;3.77;;
51810;SDS011;52468;40.116;18.296;2024-01-10T11:51:50;6.63;;;4.57;;
51810;SDS011;52468;40.116;18.296;2024-01-10T11:54:41;6.67;;;3.90;;
51810;SDS011;52468;40.116;18.296;2024-01-10T11:57:11;4.90;;;3.80;;
51810;SDS011;52468;40.116;18.296;2024-01-10T11:59:51;6.73;;;5.40;;
51810;SDS011;52468;40.116;18.296;2024-01-10T12:02:21;15.52;;;8.07;;
51810;SDS011;52468;40.116;18.296;2024-01-10T12:04:51;13.17;;;8.10;;
51810;SDS011;52468;40.116;18.296;2024-01-10T12:07:18;5.90;;;5.23;;
51810;SDS011;52468;40.116;18.296;2024-01-10T12:09:47;8.20;;;5.97;;
51810;SDS011;52468;40.116;18.296;2024-01-10T12:12:15;8.97;;;7.10;;
51810;SDS011;52468;40.116;18.296;2024-01-10T12:14:43;8.97;;;6.13;;
51810;SDS011;52468;40.116;18.296;2024-01-10T12:17:11;9.87;;;6.00;;
51810;SDS011;52468;40.116;18.296;2024-01-10T12:19:39;10.30;;;5.77;;
51810;SDS011;52468;40.116;18.296;2024-01-10T12:22:09;6.47;;;5.20;;
51810;SDS011;52468;40.116;18.296;2024-01-10T12:24:44;6.93;;;5.40;;
51810;SDS011;52468;40.116;18.296;2024-01-10T12:27:18;8.10;;;5.77;;
51810;SDS011;52468;40.116;18.296;2024-01-10T12:29:48;7.90;;;4.45;;
51810;SDS011;52468;40.116;18.296;2024-01-10T12:32:20;13.93;;;6.07;;
51810;SDS011;52468;40.116;18.296;2024-01-10T12:34:54;9.80;;;5.07;;
51810;SDS011;52468;40.116;18.296;2024-01-10T12:37:25;7.00;;;5.30;;
51810;SDS011;52468;40.116;18.296;2024-01-10T12:39:53;9.03;;;4.07;;
51810;SDS011;52468;40.116;18.296;2024-01-10T12:42:21;5.57;;;4.07;;
51810;SDS011;52468;40.116;18.296;2024-01-10T12:44:49;9.90;;;5.60;;
51810;SDS011;52468;40.116;18.296;2024-01-10T12:47:17;10.07;;;5.83;;
51810;SDS011;52468;40.116;18.296;2024-01-10T12:49:50;6.93;;;5.07;;
51810;SDS011;52468;40.116;18.296;2024-01-10T12:52:18;6.53;;;4.73;;
51810;SDS011;52468;40.116;18.296;2024-01-10T12:54:49;8.30;;;4.90;;
51810;SDS011;52468;40.116;18.296;2024-01-10T12:57:18;6.33;;;4.50;;
51810;SDS011;52468;40.116;18.296;2024-01-10T12:59:46;6.77;;;4.63;;
51810;SDS011;52468;40.116;18.296;2024-01-10T13:02:13;5.57;;;4.67;;
51810;SDS011;52468;40.116;18.296;2024-01-10T13:04:41;8.13;;;4.23;;
51810;SDS011;52468;40.116;18.296;2024-01-10T13:07:09;6.33;;;4.43;;
51810;SDS011;52468;40.116;18.296;2024-01-10T13:09:37;5.00;;;3.87;;
51810;SDS011;52468;40.116;18.296;2024-01-10T13:12:05;16.20;;;10.20;;
51810;SDS011;52468;40.116;18.296;2024-01-10T13:14:33;11.80;;;8.67;;
51810;SDS011;52468;40.116;18.296;2024-01-10T13:17:02;11.13;;;7.87;;
51810;SDS011;52468;40.116;18.296;2024-01-10T13:19:31;13.70;;;8.73;;
51810;SDS011;52468;40.116;18.296;2024-01-10T13:21:59;14.77;;;7.17;;
51810;SDS011;52468;40.116;18.296;2024-01-10T13:24:27;9.93;;;6.10;;
51810;SDS011;52468;40.116;18.296;2024-01-10T13:26:56;9.67;;;6.63;;
51810;SDS011;52468;40.116;18.296;2024-01-10T13:29:24;13.47;;;5.73;;
51810;SDS011;52468;40.116;18.296;2024-01-10T13:31:52;11.53;;;7.37;;
51810;SDS011;52468;40.116;18.296;2024-01-10T13:34:20;7.30;;;5.30;;
51810;SDS011;52468;40.116;18.296;2024-01-10T13:36:48;6.10;;;4.07;;
51810;SDS011;52468;40.116;18.296;2024-01-10T13:39:16;5.47;;;4.57;;
51810;SDS011;52468;40.116;18.296;2024-01-10T13:41:44;7.80;;;5.20;;
51810;SDS011;52468;40.116;18.296;2024-01-10T13:44:12;8.47;;;5.30;;
51810;SDS011;52468;40.116;18.296;2024-01-10T13:46:39;11.97;;;5.97;;
51810;SDS011;52468;40.116;18.296;2024-01-10T13:49:08;10.50;;;6.50;;
51810;SDS011;52468;40.116;18.296;2024-01-10T13:51:36;10.67;;;6.63;;
51810;SDS011;52468;40.116;18.296;2024-01-10T13:54:05;14.03;;;8.10;;
51810;SDS011;52468;40.116;18.296;2024-01-10T13:56:34;15.63;;;6.93;;
51810;SDS011;52468;40.116;18.296;2024-01-10T13:59:02;12.50;;;7.30;;
51810;SDS011;52468;40.116;18.296;2024-01-10T14:01:29;11.13;;;5.77;;
51810;SDS011;52468;40.116;18.296;2024-01-10T14:03:57;7.73;;;5.00;;
51810;SDS011;52468;40.116;18.296;2024-01-10T14:06:25;8.73;;;5.10;;
51810;SDS011;52468;40.116;18.296;2024-01-10T14:08:53;6.23;;;4.50;;
51810;SDS011;52468;40.116;18.296;2024-01-10T14:11:21;7.30;;;4.80;;
51810;SDS011;52468;40.116;18.296;2024-01-10T14:13:49;13.33;;;7.43;;
51810;SDS011;52468;40.116;18.296;2024-01-10T14:16:19;14.13;;;7.97;;
51810;SDS011;52468;40.116;18.296;2024-01-10T14:18:47;9.47;;;5.30;;
51810;SDS011;52468;40.116;18.296;2024-01-10T14:21:15;10.07;;;6.90;;
51810;SDS011;52468;40.116;18.296;2024-01-10T14:23:43;17.37;;;11.13;;
51810;SDS011;52468;40.116;18.296;2024-01-10T14:26:11;9.63;;;6.50;;
51810;SDS011;52468;40.116;18.296;2024-01-10T14:28:39;8.47;;;5.33;;
51810;SDS011;52468;40.116;18.296;2024-01-10T14:31:07;11.23;;;7.67;;
51810;SDS011;52468;40.116;18.296;2024-01-10T14:33:39;16.73;;;9.82;;
51810;SDS011;52468;40.116;18.296;2024-01-10T14:36:07;7.77;;;5.70;;
51810;SDS011;52468;40.116;18.296;2024-01-10T14:38:36;11.43;;;7.07;;
51810;SDS011;52468;40.116;18.296;2024-01-10T14:41:07;11.47;;;8.07;;
51810;SDS011;52468;40.116;18.296;2024-01-10T14:43:38;10.13;;;7.10;;
51810;SDS011;52468;40.116;18.296;2024-01-10T14:46:07;8.57;;;7.10;;
51810;SDS011;52468;40.116;18.296;2024-01-10T14:48:35;12.07;;;7.27;;
51810;SDS011;52468;40.116;18.296;2024-01-10T14:51:04;12.33;;;6.57;;
51810;SDS011;52468;40.116;18.296;2024-01-10T14:53:33;13.17;;;9.53;;
51810;SDS011;52468;40.116;18.296;2024-01-10T14:56:04;9.50;;;6.60;;
51810;SDS011;52468;40.116;18.296;2024-01-10T14:58:32;18.10;;;10.30;;
51810;SDS011;52468;40.116;18.296;2024-01-10T15:01:01;19.57;;;13.77;;
51810;SDS011;52468;40.116;18.296;2024-01-10T15:03:30;24.20;;;14.53;;
51810;SDS011;52468;40.116;18.296;2024-01-10T15:06:00;15.40;;;10.10;;
51810;SDS011;52468;40.116;18.296;2024-01-10T15:08:29;23.73;;;14.87;;
51810;SDS011;52468;40.116;18.296;2024-01-10T15:10:57;21.10;;;12.30;;
51810;SDS011;52468;40.116;18.296;2024-01-10T15:13:27;20.80;;;14.13;;
51810;SDS011;52468;40.116;18.296;2024-01-10T15:15:56;13.83;;;8.50;;
51810;SDS011;52468;40.116;18.296;2024-01-10T15:18:24;19.23;;;10.37;;
51810;SDS011;52468;40.116;18.296;2024-01-10T15:20:52;20.47;;;11.73;;
51810;SDS011;52468;40.116;18.296;2024-01-10T15:23:19;13.93;;;10.33;;
51810;SDS011;52468;40.116;18.296;2024-01-10T15:25:49;15.53;;;10.20;;
51810;SDS011;52468;40.116;18.296;2024-01-10T15:28:17;16.27;;;9.60;;
51810;SDS011;52468;40.116;18.296;2024-01-10T15:30:46;13.30;;;8.70;;
51810;SDS011;52468;40.116;18.296;2024-01-10T15:33:14;14.27;;;9.67;;
51810;SDS011;52468;40.116;18.296;2024-01-10T15:35:42;17.47;;;9.73;;
51810;SDS011;52468;40.116;18.296;2024-01-10T15:38:11;17.87;;;10.30;;
51810;SDS011;52468;40.116;18.296;2024-01-10T15:40:39;20.20;;;11.13;;
51810;SDS011;52468;40.116;18.296;2024-01-10T15:43:07;17.43;;;11.83;;
51810;SDS011;52468;40.116;18.296;2024-01-10T15:45:37;22.10;;;13.77;;
51810;SDS011;52468;40.116;18.296;2024-01-10T15:48:06;21.10;;;13.77;;
51810;SDS011;52468;40.116;18.296;2024-01-10T15:50:35;25.13;;;16.30;;
51810;SDS011;52468;40.116;18.296;2024-01-10T15:53:05;33.57;;;18.90;;
51810;SDS011;52468;40.116;18.296;2024-01-10T15:55:34;32.17;;;19.37;;
51810;SDS011;52468;40.116;18.296;2024-01-10T15:58:06;26.20;;;16.57;;
51810;SDS011;52468;40.116;18.296;2024-01-10T16:00:35;18.67;;;12.93;;
51810;SDS011;52468;40.116;18.296;2024-01-10T16:03:06;27.80;;;18.83;;
51810;SDS011;52468;40.116;18.296;2024-01-10T16:05:34;48.23;;;30.97;;
51810;SDS011;52468;40.116;18.296;2024-01-10T16:08:02;57.37;;;35.13;;
51810;SDS011;52468;40.116;18.296;2024-01-10T16:10:30;102.63;;;63.33;;
51810;SDS011;52468;40.116;18.296;2024-01-10T16:12:59;79.70;;;50.80;;
51810;SDS011;52468;40.116;18.296;2024-01-10T16:15:27;41.83;;;25.57;;
51810;SDS011;52468;40.116;18.296;2024-01-10T16:17:55;32.57;;;18.90;;
51810;SDS011;52468;40.116;18.296;2024-01-10T16:20:24;22.97;;;16.33;;
51810;SDS011;52468;40.116;18.296;2024-01-10T16:22:52;32.33;;;19.67;;
51810;SDS011;52468;40.116;18.296;2024-01-10T16:25:22;28.03;;;19.43;;
51810;SDS011;52468;40.116;18.296;2024-01-10T16:27:50;28.03;;;16.43;;
51810;SDS011;52468;40.116;18.296;2024-01-10T16:30:18;28.77;;;18.57;;
51810;SDS011;52468;40.116;18.296;2024-01-10T16:32:47;27.00;;;19.73;;
51810;SDS011;52468;40.116;18.296;2024-01-10T16:35:15;33.53;;;21.50;;
51810;SDS011;52468;40.116;18.296;2024-01-10T16:37:43;31.30;;;22.47;;
51810;SDS011;52468;40.116;18.296;2024-01-10T16:40:11;29.90;;;21.40;;
51810;SDS011;52468;40.116;18.296;2024-01-10T16:42:39;39.03;;;21.50;;
51810;SDS011;52468;40.116;18.296;2024-01-10T16:45:07;26.87;;;18.93;;
51810;SDS011;52468;40.116;18.296;2024-01-10T16:47:35;25.90;;;16.70;;
51810;SDS011;52468;40.116;18.296;2024-01-10T16:50:04;30.47;;;19.70;;
51810;SDS011;52468;40.116;18.296;2024-01-10T16:52:32;25.83;;;16.03;;
51810;SDS011;52468;40.116;18.296;2024-01-10T16:55:01;25.23;;;16.90;;
51810;SDS011;52468;40.116;18.296;2024-01-10T16:57:30;18.13;;;13.70;;
51810;SDS011;52468;40.116;18.296;2024-01-10T16:59:58;22.63;;;13.90;;
51810;SDS011;52468;40.116;18.296;2024-01-10T17:02:26;17.03;;;11.90;;
51810;SDS011;52468;40.116;18.296;2024-01-10T17:04:54;13.83;;;10.60;;
51810;SDS011;52468;40.116;18.296;2024-01-10T17:07:22;20.60;;;12.23;;
51810;SDS011;52468;40.116;18.296;2024-01-10T17:09:50;15.77;;;10.73;;
51810;SDS011;52468;40.116;18.296;2024-01-10T17:12:18;18.60;;;12.90;;
51810;SDS011;52468;40.116;18.296;2024-01-10T17:14:46;24.80;;;15.80;;
51810;SDS011;52468;40.116;18.296;2024-01-10T17:17:14;23.50;;;15.57;;
51810;SDS011;52468;40.116;18.296;2024-01-10T17:19:42;23.33;;;14.70;;
51810;SDS011;52468;40.116;18.296;2024-01-10T17:22:10;23.30;;;16.57;;
51810;SDS011;52468;40.116;18.296;2024-01-10T17:24:38;28.63;;;18.00;;
51810;SDS011;52468;40.116;18.296;2024-01-10T17:27:06;26.37;;;16.43;;
51810;SDS011;52468;40.116;18.296;2024-01-10T17:29:34;28.77;;;18.70;;
51810;SDS011;52468;40.116;18.296;2024-01-10T17:32:02;28.03;;;18.03;;
51810;SDS011;52468;40.116;18.296;2024-01-10T17:34:36;20.23;;;16.50;;
51810;SDS011;52468;40.116;18.296;2024-01-10T17:37:04;27.20;;;17.03;;
51810;SDS011;52468;40.116;18.296;2024-01-10T17:39:32;23.63;;;14.07;;
51810;SDS011;52468;40.116;18.296;2024-01-10T17:42:02;23.43;;;15.40;;
51810;SDS011;52468;40.116;18.296;2024-01-10T17:44:30;26.73;;;17.23;;
51810;SDS011;52468;40.116;18.296;2024-01-10T17:46:58;35.03;;;23.47;;
51810;SDS011;52468;40.116;18.296;2024-01-10T17:49:25;35.97;;;18.17;;
51810;SDS011;52468;40.116;18.296;2024-01-10T17:51:53;22.40;;;16.70;;
51810;SDS011;52468;40.116;18.296;2024-01-10T17:54:21;21.87;;;16.13;;
51810;SDS011;52468;40.116;18.296;2024-01-10T17:56:49;23.93;;;15.67;;
51810;SDS011;52468;40.116;18.296;2024-01-10T17:59:17;21.70;;;13.87;;
51810;SDS011;52468;40.116;18.296;2024-01-10T18:01:45;54.43;;;32.53;;
51810;SDS011;52468;40.116;18.296;2024-01-10T18:04:13;25.87;;;15.73;;
51810;SDS011;52468;40.116;18.296;2024-01-10T18:06:41;26.53;;;17.27;;
51810;SDS011;52468;40.116;18.296;2024-01-10T18:09:09;27.97;;;16.87;;
51810;SDS011;52468;40.116;18.296;2024-01-10T18:11:37;27.63;;;16.73;;
51810;SDS011;52468;40.116;18.296;2024-01-10T18:14:05;19.37;;;13.87;;
51810;SDS011;52468;40.116;18.296;2024-01-10T18:16:33;33.30;;;22.00;;
51810;SDS011;52468;40.116;18.296;2024-01-10T18:19:01;27.53;;;16.10;;
51810;SDS011;52468;40.116;18.296;2024-01-10T18:21:29;18.90;;;13.97;;
51810;SDS011;52468;40.116;18.296;2024-01-10T18:23:57;23.67;;;13.83;;
51810;SDS011;52468;40.116;18.296;2024-01-10T18:26:25;18.83;;;13.03;;
51810;SDS011;52468;40.116;18.296;2024-01-10T18:28:54;22.37;;;13.03;;
51810;SDS011;52468;40.116;18.296;2024-01-10T18:31:22;28.57;;;17.80;;
51810;SDS011;52468;40.116;18.296;2024-01-10T18:33:50;24.77;;;16.57;;
51810;SDS011;52468;40.116;18.296;2024-01-10T18:36:18;24.50;;;17.07;;
51810;SDS011;52468;40.116;18.296;2024-01-10T18:38:46;36.33;;;20.43;;
51810;SDS011;52468;40.116;18.296;2024-01-10T18:41:14;37.67;;;22.20;;
51810;SDS011;52468;40.116;18.296;2024-01-10T18:43:42;33.10;;;19.03;;
51810;SDS011;52468;40.116;18.296;2024-01-10T18:46:10;30.47;;;20.03;;
51810;SDS011;52468;40.116;18.296;2024-01-10T18:48:38;38.60;;;24.77;;
51810;SDS011;52468;40.116;18.296;2024-01-10T18:51:06;36.73;;;23.50;;
51810;SDS011;52468;40.116;18.296;2024-01-10T18:53:34;40.83;;;24.43;;
51810;SDS011;52468;40.116;18.296;2024-01-10T18:56:03;35.70;;;24.07;;
51810;SDS011;52468;40.116;18.296;2024-01-10T18:58:33;56.53;;;32.50;;
51810;SDS011;52468;40.116;18.296;2024-01-10T19:01:03;48.03;;;27.80;;
51810;SDS011;52468;40.116;18.296;2024-01-10T19:03:31;35.00;;;24.17;;
51810;SDS011;52468;40.116;18.296;2024-01-10T19:05:59;164.33;;;92.93;;
51810;SDS011;52468;40.116;18.296;2024-01-10T19:08:27;156.83;;;86.20;;
51810;SDS011;52468;40.116;18.296;2024-01-10T19:10:55;83.53;;;48.53;;
51810;SDS011;52468;40.116;18.296;2024-01-10T19:13:23;123.30;;;68.70;;
51810;SDS011;52468;40.116;18.296;2024-01-10T19:15:51;66.37;;;43.23;;
51810;SDS011;52468;40.116;18.296;2024-01-10T19:18:20;44.63;;;29.53;;
51810;SDS011;52468;40.116;18.296;2024-01-10T19:20:48;44.60;;;28.37;;
51810;SDS011;52468;40.116;18.296;2024-01-10T19:23:16;42.63;;;24.93;;
51810;SDS011;52468;40.116;18.296;2024-01-10T19:25:45;35.73;;;24.57;;
51810;SDS011;52468;40.116;18.296;2024-01-10T19:28:14;36.77;;;25.03;;
51810;SDS011;52468;40.116;18.296;2024-01-10T19:30:42;37.37;;;25.53;;
51810;SDS011;52468;40.116;18.296;2024-01-10T19:33:10;38.77;;;24.53;;
51810;SDS011;52468;40.116;18.296;2024-01-10T19:35:38;36.57;;;22.10;;
51810;SDS011;52468;40.116;18.296;2024-01-10T19:38:06;37.00;;;23.17;;
51810;SDS011;52468;40.116;18.296;2024-01-10T19:40:34;33.27;;;20.43;;
51810;SDS011;52468;40.116;18.296;2024-01-10T19:43:06;30.07;;;19.57;;
51810;SDS011;52468;40.116;18.296;2024-01-10T19:45:35;35.73;;;22.97;;
51810;SDS011;52468;40.116;18.296;2024-01-10T19:48:03;34.40;;;22.43;;
51810;SDS011;52468;40.116;18.296;2024-01-10T19:50:31;33.30;;;20.90;;
51810;SDS011;52468;40.116;18.296;2024-01-10T19:53:01;35.37;;;23.53;;
51810;SDS011;52468;40.116;18.296;2024-01-10T19:55:30;43.63;;;26.10;;
51810;SDS011;52468;40.116;18.296;2024-01-10T19:57:58;42.73;;;27.20;;
51810;SDS011;52468;40.116;18.296;2024-01-10T20:00:26;57.23;;;35.53;;
51810;SDS011;52468;40.116;18.296;2024-01-10T20:02:54;46.60;;;30.87;;
51810;SDS011;52468;40.116;18.296;2024-01-10T20:05:22;36.70;;;24.43;;
51810;SDS011;52468;40.116;18.296;2024-01-10T20:07:50;38.40;;;20.27;;
51810;SDS011;52468;40.116;18.296;2024-01-10T20:10:17;32.13;;;21.07;;
51810;SDS011;52468;40.116;18.296;2024-01-10T20:12:45;34.20;;;21.43;;
51810;SDS011;52468;40.116;18.296;2024-01-10T20:15:14;35.83;;;20.87;;
51810;SDS011;52468;40.116;18.296;2024-01-10T20:17:43;30.77;;;19.17;;
51810;SDS011;52468;40.116;18.296;2024-01-10T20:20:10;34.47;;;21.27;;
51810;SDS011;52468;40.116;18.296;2024-01-10T20:22:41;34.83;;;19.33;;
51810;SDS011;52468;40.116;18.296;2024-01-10T20:25:09;31.07;;;19.93;;
51810;SDS011;52468;40.116;18.296;2024-01-10T20:27:36;29.67;;;18.03;;
51810;SDS011;52468;40.116;18.296;2024-01-10T20:30:06;28.17;;;17.03;;
51810;SDS011;52468;40.116;18.296;2024-01-10T20:32:34;46.00;;;25.83;;
51810;SDS011;52468;40.116;18.296;2024-01-10T20:35:04;30.27;;;20.27;;
51810;SDS011;52468;40.116;18.296;2024-01-10T20:37:32;27.17;;;17.30;;
51810;SDS011;52468;40.116;18.296;2024-01-10T20:40:00;28.83;;;16.57;;
51810;SDS011;52468;40.116;18.296;2024-01-10T20:42:27;25.73;;;18.40;;
51810;SDS011;52468;40.116;18.296;2024-01-10T20:44:57;33.90;;;19.23;;
51810;SDS011;52468;40.116;18.296;2024-01-10T20:47:26;29.50;;;19.47;;
51810;SDS011;52468;40.116;18.296;2024-01-10T20:49:57;30.40;;;18.00;;
51810;SDS011;52468;40.116;18.296;2024-01-10T20:52:26;26.90;;;16.83;;
51810;SDS011;52468;40.116;18.296;2024-01-10T20:54:54;34.97;;;19.70;;
51810;SDS011;52468;40.116;18.296;2024-01-10T20:57:22;30.73;;;19.40;;
51810;SDS011;52468;40.116;18.296;2024-01-10T20:59:50;32.17;;;19.80;;
51810;SDS011;52468;40.116;18.296;2024-01-10T21:02:20;30.07;;;20.27;;
51810;SDS011;52468;40.116;18.296;2024-01-10T21:04:50;35.87;;;20.80;;
51810;SDS011;52468;40.116;18.296;2024-01-10T21:07:18;31.90;;;20.53;;
51810;SDS011;52468;40.116;18.296;2024-01-10T21:09:46;35.57;;;21.23;;
51810;SDS011;52468;40.116;18.296;2024-01-10T21:12:14;36.47;;;20.60;;
51810;SDS011;52468;40.116;18.296;2024-01-10T21:14:42;32.97;;;20.37;;
51810;SDS011;52468;40.116;18.296;2024-01-10T21:17:13;31.43;;;19.33;;
51810;SDS011;52468;40.116;18.296;2024-01-10T21:19:43;35.53;;;21.60;;
51810;SDS011;52468;40.116;18.296;2024-01-10T21:22:11;34.30;;;21.97;;
51810;SDS011;52468;40.116;18.296;2024-01-10T21:24:40;30.67;;;19.77;;